sensor_id;sensor_type;location;lat;lon;timestamp;P1;durP1;ratioP1;P2;durP2;ratioP2
47529;SDS011;33272;51.922;7.730;2023-06-26T00:02:17;8.47;;;7.67;;
47529;SDS011;33272;51.922;7.730;2023-06-26T00:04:44;10.27;;;8.00;;
47529;SDS011;33272;51.922;7.730;2023-06-26T00:07:11;8.13;;;7.33;;
47529;SDS011;33272;51.922;7.730;2023-06-26T00:09:38;8.60;;;7.73;;
47529;SDS011;33272;51.922;7.730;2023-06-26T00:12:06;8.57;;;7.77;;
47529;SDS011;33272;51.922;7.730;2023-06-26T00:14:34;8.43;;;7.63;;
47529;SDS011;33272;51.922;7.730;2023-06-26T00:17:01;8.17;;;7.37;;
47529;SDS011;33272;51.922;7.730;2023-06-26T00:19:27;8.97;;;8.10;;
47529;SDS011;33272;51.922;7.730;2023-06-26T00:21:54;9.47;;;8.53;;
47529;SDS011;33272;51.922;7.730;2023-06-26T00:24:21;8.60;;;7.73;;
47529;SDS011;33272;51.922;7.730;2023-06-26T00:26:48;9.20;;;8.30;;
47529;SDS011;33272;51.922;7.730;2023-06-26T00:29:17;8.97;;;8.07;;
47529;SDS011;33272;51.922;7.730;2023-06-26T00:31:44;9.07;;;8.17;;
47529;SDS011;33272;51.922;7.730;2023-06-26T00:34:11;8.47;;;7.60;;
47529;SDS011;33272;51.922;7.730;2023-06-26T00:36:37;9.23;;;8.27;;
47529;SDS011;33272;51.922;7.730;2023-06-26T00:39:08;8.67;;;7.63;;
47529;SDS011;33272;51.922;7.730;2023-06-26T00:41:35;9.67;;;7.80;;
47529;SDS011;33272;51.922;7.730;2023-06-26T00:44:03;8.83;;;7.97;;
47529;SDS011;33272;51.922;7.730;2023-06-26T00:46:31;9.10;;;8.13;;
47529;SDS011;33272;51.922;7.730;2023-06-26T00:49:00;8.83;;;7.93;;
47529;SDS011;33272;51.922;7.730;2023-06-26T00:51:29;9.90;;;8.97;;
47529;SDS011;33272;51.922;7.730;2023-06-26T00:53:57;10.63;;;9.07;;
47529;SDS011;33272;51.922;7.730;2023-06-26T00:56:25;9.43;;;8.03;;
47529;SDS011;33272;51.922;7.730;2023-06-26T00:58:52;10.60;;;8.83;;
47529;SDS011;33272;51.922;7.730;2023-06-26T01:01:19;10.93;;;8.77;;
47529;SDS011;33272;51.922;7.730;2023-06-26T01:03:49;10.10;;;8.23;;
47529;SDS011;33272;51.922;7.730;2023-06-26T01:06:18;9.60;;;8.67;;
47529;SDS011;33272;51.922;7.730;2023-06-26T01:08:47;9.57;;;8.43;;
47529;SDS011;33272;51.922;7.730;2023-06-26T01:11:15;9.87;;;8.77;;
47529;SDS011;33272;51.922;7.730;2023-06-26T01:13:42;10.97;;;8.40;;
47529;SDS011;33272;51.922;7.730;2023-06-26T01:16:10;8.53;;;7.73;;
47529;SDS011;33272;51.922;7.730;2023-06-26T01:18:37;10.23;;;8.77;;
47529;SDS011;33272;51.922;7.730;2023-06-26T01:21:08;9.27;;;8.37;;
47529;SDS011;33272;51.922;7.730;2023-06-26T01:23:37;8.80;;;8.00;;
47529;SDS011;33272;51.922;7.730;2023-06-26T01:26:18;10.43;;;9.07;;
47529;SDS011;33272;51.922;7.730;2023-06-26T01:28:47;9.97;;;8.93;;
47529;SDS011;33272;51.922;7.730;2023-06-26T01:31:17;9.50;;;8.50;;
47529;SDS011;33272;51.922;7.730;2023-06-26T01:33:45;9.00;;;7.53;;
47529;SDS011;33272;51.922;7.730;2023-06-26T01:36:13;9.33;;;8.43;;
47529;SDS011;33272;51.922;7.730;2023-06-26T01:38:40;9.87;;;7.53;;
47529;SDS011;33272;51.922;7.730;2023-06-26T01:41:07;8.70;;;7.80;;
47529;SDS011;33272;51.922;7.730;2023-06-26T01:43:39;8.73;;;7.90;;
47529;SDS011;33272;51.922;7.730;2023-06-26T01:46:16;9.57;;;7.97;;
47529;SDS011;33272;51.922;7.730;2023-06-26T01:48:50;9.40;;;7.77;;
47529;SDS011;33272;51.922;7.730;2023-06-26T01:51:30;8.47;;;7.50;;
47529;SDS011;33272;51.922;7.730;2023-06-26T01:54:02;10.33;;;7.97;;
47529;SDS011;33272;51.922;7.730;2023-06-26T01:56:31;8.53;;;7.73;;
47529;SDS011;33272;51.922;7.730;2023-06-26T01:59:00;8.97;;;7.60;;
47529;SDS011;33272;51.922;7.730;2023-06-26T02:01:30;10.03;;;8.00;;
47529;SDS011;33272;51.922;7.730;2023-06-26T02:03:58;9.17;;;7.80;;
47529;SDS011;33272;51.922;7.730;2023-06-26T02:06:25;9.40;;;8.13;;
47529;SDS011;33272;51.922;7.730;2023-06-26T02:08:52;9.00;;;7.50;;
47529;SDS011;33272;51.922;7.730;2023-06-26T02:11:21;9.20;;;8.20;;
47529;SDS011;33272;51.922;7.730;2023-06-26T02:13:48;7.43;;;6.70;;
47529;SDS011;33272;51.922;7.730;2023-06-26T02:16:16;10.30;;;7.70;;
47529;SDS011;33272;51.922;7.730;2023-06-26T02:18:44;8.10;;;7.30;;
47529;SDS011;33272;51.922;7.730;2023-06-26T02:21:11;8.77;;;7.47;;
47529;SDS011;33272;51.922;7.730;2023-06-26T02:23:37;8.10;;;7.13;;
47529;SDS011;33272;51.922;7.730;2023-06-26T02:26:04;8.93;;;7.30;;
47529;SDS011;33272;51.922;7.730;2023-06-26T02:28:31;8.90;;;7.43;;
47529;SDS011;33272;51.922;7.730;2023-06-26T02:30:59;8.40;;;7.60;;
47529;SDS011;33272;51.922;7.730;2023-06-26T02:33:28;10.23;;;7.10;;
47529;SDS011;33272;51.922;7.730;2023-06-26T02:35:55;9.80;;;7.60;;
47529;SDS011;33272;51.922;7.730;2023-06-26T02:38:22;10.47;;;8.40;;
47529;SDS011;33272;51.922;7.730;2023-06-26T02:40:49;8.10;;;7.30;;
47529;SDS011;33272;51.922;7.730;2023-06-26T02:43:16;8.20;;;7.33;;
47529;SDS011;33272;51.922;7.730;2023-06-26T02:45:43;9.07;;;7.43;;
47529;SDS011;33272;51.922;7.730;2023-06-26T02:48:10;9.57;;;8.10;;
47529;SDS011;33272;51.922;7.730;2023-06-26T02:50:38;8.87;;;7.67;;
47529;SDS011;33272;51.922;7.730;2023-06-26T02:53:05;10.23;;;7.80;;
47529;SDS011;33272;51.922;7.730;2023-06-26T02:55:33;8.83;;;7.80;;
47529;SDS011;33272;51.922;7.730;2023-06-26T02:58:00;9.10;;;7.63;;
47529;SDS011;33272;51.922;7.730;2023-06-26T03:00:27;9.50;;;7.90;;
47529;SDS011;33272;51.922;7.730;2023-06-26T03:02:55;10.50;;;7.63;;
47529;SDS011;33272;51.922;7.730;2023-06-26T03:05:22;8.87;;;7.87;;
47529;SDS011;33272;51.922;7.730;2023-06-26T03:07:50;9.47;;;7.67;;
47529;SDS011;33272;51.922;7.730;2023-06-26T03:10:17;8.77;;;7.97;;
47529;SDS011;33272;51.922;7.730;2023-06-26T03:12:44;8.27;;;7.43;;
47529;SDS011;33272;51.922;7.730;2023-06-26T03:15:11;9.13;;;7.20;;
47529;SDS011;33272;51.922;7.730;2023-06-26T03:17:38;8.37;;;7.13;;
47529;SDS011;33272;51.922;7.730;2023-06-26T03:20:06;9.37;;;8.47;;
47529;SDS011;33272;51.922;7.730;2023-06-26T03:22:35;8.80;;;7.90;;
47529;SDS011;33272;51.922;7.730;2023-06-26T03:25:03;8.83;;;7.90;;
47529;SDS011;33272;51.922;7.730;2023-06-26T03:27:31;11.80;;;7.93;;
47529;SDS011;33272;51.922;7.730;2023-06-26T03:29:58;9.20;;;7.97;;
47529;SDS011;33272;51.922;7.730;2023-06-26T03:32:25;9.90;;;8.00;;
47529;SDS011;33272;51.922;7.730;2023-06-26T03:34:52;8.40;;;7.60;;
47529;SDS011;33272;51.922;7.730;2023-06-26T03:37:19;9.57;;;7.97;;
47529;SDS011;33272;51.922;7.730;2023-06-26T03:39:46;11.87;;;7.50;;
47529;SDS011;33272;51.922;7.730;2023-06-26T03:42:14;10.77;;;7.60;;
47529;SDS011;33272;51.922;7.730;2023-06-26T03:44:41;8.97;;;7.43;;
47529;SDS011;33272;51.922;7.730;2023-06-26T03:47:08;11.00;;;8.10;;
47529;SDS011;33272;51.922;7.730;2023-06-26T03:49:35;13.07;;;7.73;;
47529;SDS011;33272;51.922;7.730;2023-06-26T03:52:02;9.20;;;7.23;;
47529;SDS011;33272;51.922;7.730;2023-06-26T03:54:29;9.37;;;7.20;;
47529;SDS011;33272;51.922;7.730;2023-06-26T03:56:57;8.47;;;7.20;;
47529;SDS011;33272;51.922;7.730;2023-06-26T03:59:26;8.03;;;7.23;;
47529;SDS011;33272;51.922;7.730;2023-06-26T04:01:53;8.67;;;6.77;;
47529;SDS011;33272;51.922;7.730;2023-06-26T04:04:19;8.03;;;6.83;;
47529;SDS011;33272;51.922;7.730;2023-06-26T04:06:46;8.43;;;7.20;;
47529;SDS011;33272;51.922;7.730;2023-06-26T04:09:13;9.00;;;7.17;;
47529;SDS011;33272;51.922;7.730;2023-06-26T04:11:40;7.80;;;6.47;;
47529;SDS011;33272;51.922;7.730;2023-06-26T04:14:07;7.47;;;6.77;;
47529;SDS011;33272;51.922;7.730;2023-06-26T04:16:36;9.00;;;7.10;;
47529;SDS011;33272;51.922;7.730;2023-06-26T04:19:03;8.73;;;6.80;;
47529;SDS011;33272;51.922;7.730;2023-06-26T04:21:30;8.43;;;6.70;;
47529;SDS011;33272;51.922;7.730;2023-06-26T04:23:57;9.20;;;6.90;;
47529;SDS011;33272;51.922;7.730;2023-06-26T04:26:24;9.27;;;6.20;;
47529;SDS011;33272;51.922;7.730;2023-06-26T04:28:52;7.10;;;6.40;;
47529;SDS011;33272;51.922;7.730;2023-06-26T04:31:19;7.17;;;6.17;;
47529;SDS011;33272;51.922;7.730;2023-06-26T04:33:48;7.97;;;6.10;;
47529;SDS011;33272;51.922;7.730;2023-06-26T04:36:16;6.50;;;5.90;;
47529;SDS011;33272;51.922;7.730;2023-06-26T04:38:43;8.67;;;6.40;;
47529;SDS011;33272;51.922;7.730;2023-06-26T04:41:10;7.23;;;6.30;;
47529;SDS011;33272;51.922;7.730;2023-06-26T04:43:37;6.70;;;5.73;;
47529;SDS011;33272;51.922;7.730;2023-06-26T04:46:04;6.87;;;5.67;;
47529;SDS011;33272;51.922;7.730;2023-06-26T04:48:31;8.07;;;6.20;;
47529;SDS011;33272;51.922;7.730;2023-06-26T04:51:00;6.80;;;6.10;;
47529;SDS011;33272;51.922;7.730;2023-06-26T04:53:27;6.50;;;5.90;;
47529;SDS011;33272;51.922;7.730;2023-06-26T04:55:54;9.27;;;6.27;;
47529;SDS011;33272;51.922;7.730;2023-06-26T04:58:21;10.20;;;6.70;;
47529;SDS011;33272;51.922;7.730;2023-06-26T05:00:48;10.03;;;6.23;;
47529;SDS011;33272;51.922;7.730;2023-06-26T05:03:16;9.17;;;6.97;;
47529;SDS011;33272;51.922;7.730;2023-06-26T05:05:44;6.93;;;6.33;;
47529;SDS011;33272;51.922;7.730;2023-06-26T05:08:16;7.10;;;6.00;;
47529;SDS011;33272;51.922;7.730;2023-06-26T05:10:44;7.33;;;6.63;;
47529;SDS011;33272;51.922;7.730;2023-06-26T05:13:12;7.53;;;6.03;;
47529;SDS011;33272;51.922;7.730;2023-06-26T05:15:42;8.30;;;6.77;;
47529;SDS011;33272;51.922;7.730;2023-06-26T05:18:09;7.43;;;6.60;;
47529;SDS011;33272;51.922;7.730;2023-06-26T05:20:37;7.70;;;6.87;;
47529;SDS011;33272;51.922;7.730;2023-06-26T05:23:04;8.47;;;7.17;;
47529;SDS011;33272;51.922;7.730;2023-06-26T05:25:33;10.80;;;6.83;;
47529;SDS011;33272;51.922;7.730;2023-06-26T05:28:01;9.67;;;8.00;;
47529;SDS011;33272;51.922;7.730;2023-06-26T05:30:30;9.00;;;7.37;;
47529;SDS011;33272;51.922;7.730;2023-06-26T05:32:59;8.67;;;7.63;;
47529;SDS011;33272;51.922;7.730;2023-06-26T05:35:28;10.10;;;7.30;;
47529;SDS011;33272;51.922;7.730;2023-06-26T05:37:56;8.70;;;7.70;;
47529;SDS011;33272;51.922;7.730;2023-06-26T05:40:25;9.27;;;7.27;;
47529;SDS011;33272;51.922;7.730;2023-06-26T05:42:54;9.17;;;7.00;;
47529;SDS011;33272;51.922;7.730;2023-06-26T05:45:22;11.37;;;7.23;;
47529;SDS011;33272;51.922;7.730;2023-06-26T05:47:48;10.80;;;7.93;;
47529;SDS011;33272;51.922;7.730;2023-06-26T05:50:17;8.47;;;7.37;;
47529;SDS011;33272;51.922;7.730;2023-06-26T05:52:45;7.77;;;6.97;;
47529;SDS011;33272;51.922;7.730;2023-06-26T05:55:13;8.57;;;7.27;;
47529;SDS011;33272;51.922;7.730;2023-06-26T05:57:41;9.80;;;7.43;;
47529;SDS011;33272;51.922;7.730;2023-06-26T06:00:11;9.67;;;7.13;;
47529;SDS011;33272;51.922;7.730;2023-06-26T06:02:39;9.70;;;7.73;;
47529;SDS011;33272;51.922;7.730;2023-06-26T06:05:08;7.80;;;7.00;;
47529;SDS011;33272;51.922;7.730;2023-06-26T06:07:35;7.63;;;6.80;;
47529;SDS011;33272;51.922;7.730;2023-06-26T06:10:03;8.03;;;7.23;;
47529;SDS011;33272;51.922;7.730;2023-06-26T06:12:30;8.37;;;7.07;;
47529;SDS011;33272;51.922;7.730;2023-06-26T06:14:58;8.13;;;7.13;;
47529;SDS011;33272;51.922;7.730;2023-06-26T06:17:26;11.43;;;7.33;;
47529;SDS011;33272;51.922;7.730;2023-06-26T06:19:53;7.40;;;6.37;;
47529;SDS011;33272;51.922;7.730;2023-06-26T06:22:20;7.90;;;5.70;;
47529;SDS011;33272;51.922;7.730;2023-06-26T06:24:48;6.73;;;5.83;;
47529;SDS011;33272;51.922;7.730;2023-06-26T06:27:16;8.30;;;6.27;;
47529;SDS011;33272;51.922;7.730;2023-06-26T06:29:43;7.33;;;5.70;;
47529;SDS011;33272;51.922;7.730;2023-06-26T06:32:10;8.57;;;5.53;;
47529;SDS011;33272;51.922;7.730;2023-06-26T06:34:38;8.77;;;5.60;;
47529;SDS011;33272;51.922;7.730;2023-06-26T06:37:05;9.10;;;5.37;;
47529;SDS011;33272;51.922;7.730;2023-06-26T06:39:32;9.30;;;5.90;;
47529;SDS011;33272;51.922;7.730;2023-06-26T06:41:59;8.73;;;5.63;;
47529;SDS011;33272;51.922;7.730;2023-06-26T06:44:26;7.43;;;5.30;;
47529;SDS011;33272;51.922;7.730;2023-06-26T06:46:55;8.87;;;5.63;;
47529;SDS011;33272;51.922;7.730;2023-06-26T06:49:22;7.77;;;5.23;;
47529;SDS011;33272;51.922;7.730;2023-06-26T06:51:50;8.30;;;5.13;;
47529;SDS011;33272;51.922;7.730;2023-06-26T06:54:17;7.67;;;4.80;;
47529;SDS011;33272;51.922;7.730;2023-06-26T06:56:44;9.23;;;5.17;;
47529;SDS011;33272;51.922;7.730;2023-06-26T06:59:11;5.40;;;4.57;;
47529;SDS011;33272;51.922;7.730;2023-06-26T07:01:38;5.37;;;4.40;;
47529;SDS011;33272;51.922;7.730;2023-06-26T07:04:06;7.57;;;4.70;;
47529;SDS011;33272;51.922;7.730;2023-06-26T07:06:33;6.80;;;4.57;;
47529;SDS011;33272;51.922;7.730;2023-06-26T07:09:01;8.97;;;4.67;;
47529;SDS011;33272;51.922;7.730;2023-06-26T07:11:28;8.10;;;5.10;;
47529;SDS011;33272;51.922;7.730;2023-06-26T07:13:55;8.20;;;4.33;;
47529;SDS011;33272;51.922;7.730;2023-06-26T07:16:22;8.33;;;5.23;;
47529;SDS011;33272;51.922;7.730;2023-06-26T07:18:49;10.37;;;5.73;;
47529;SDS011;33272;51.922;7.730;2023-06-26T07:21:17;8.23;;;5.13;;
47529;SDS011;33272;51.922;7.730;2023-06-26T07:23:44;10.57;;;5.53;;
47529;SDS011;33272;51.922;7.730;2023-06-26T07:26:13;6.40;;;4.67;;
47529;SDS011;33272;51.922;7.730;2023-06-26T07:28:41;7.83;;;4.93;;
47529;SDS011;33272;51.922;7.730;2023-06-26T07:31:08;7.13;;;4.90;;
47529;SDS011;33272;51.922;7.730;2023-06-26T07:33:35;9.40;;;5.43;;
47529;SDS011;33272;51.922;7.730;2023-06-26T07:36:02;7.37;;;5.33;;
47529;SDS011;33272;51.922;7.730;2023-06-26T07:38:29;9.17;;;4.97;;
47529;SDS011;33272;51.922;7.730;2023-06-26T07:40:56;7.50;;;5.33;;
47529;SDS011;33272;51.922;7.730;2023-06-26T07:43:25;8.87;;;5.47;;
47529;SDS011;33272;51.922;7.730;2023-06-26T07:45:52;8.73;;;5.43;;
47529;SDS011;33272;51.922;7.730;2023-06-26T07:48:19;11.93;;;5.53;;
47529;SDS011;33272;51.922;7.730;2023-06-26T07:50:46;9.77;;;5.63;;
47529;SDS011;33272;51.922;7.730;2023-06-26T07:53:13;12.17;;;6.40;;
47529;SDS011;33272;51.922;7.730;2023-06-26T07:55:40;9.93;;;5.37;;
47529;SDS011;33272;51.922;7.730;2023-06-26T07:58:07;7.97;;;5.53;;
47529;SDS011;33272;51.922;7.730;2023-06-26T08:00:36;10.40;;;4.87;;
47529;SDS011;33272;51.922;7.730;2023-06-26T08:03:03;7.50;;;5.13;;
47529;SDS011;33272;51.922;7.730;2023-06-26T08:05:30;10.73;;;5.23;;
47529;SDS011;33272;51.922;7.730;2023-06-26T08:07:57;7.97;;;5.20;;
47529;SDS011;33272;51.922;7.730;2023-06-26T08:10:26;10.33;;;5.67;;
47529;SDS011;33272;51.922;7.730;2023-06-26T08:12:53;11.17;;;5.10;;
47529;SDS011;33272;51.922;7.730;2023-06-26T08:15:21;8.10;;;5.63;;
47529;SDS011;33272;51.922;7.730;2023-06-26T08:17:49;9.57;;;4.77;;
47529;SDS011;33272;51.922;7.730;2023-06-26T08:20:16;7.60;;;5.43;;
47529;SDS011;33272;51.922;7.730;2023-06-26T08:22:44;8.73;;;5.10;;
47529;SDS011;33272;51.922;7.730;2023-06-26T08:25:13;10.30;;;5.97;;
47529;SDS011;33272;51.922;7.730;2023-06-26T08:27:40;9.80;;;5.87;;
47529;SDS011;33272;51.922;7.730;2023-06-26T08:30:07;7.17;;;5.10;;
47529;SDS011;33272;51.922;7.730;2023-06-26T08:32:35;11.03;;;5.43;;
47529;SDS011;33272;51.922;7.730;2023-06-26T08:35:04;7.70;;;5.13;;
47529;SDS011;33272;51.922;7.730;2023-06-26T08:37:35;9.57;;;5.47;;
47529;SDS011;33272;51.922;7.730;2023-06-26T08:40:02;7.60;;;5.53;;
47529;SDS011;33272;51.922;7.730;2023-06-26T08:42:30;6.47;;;4.73;;
47529;SDS011;33272;51.922;7.730;2023-06-26T08:44:57;7.97;;;4.90;;
47529;SDS011;33272;51.922;7.730;2023-06-26T08:47:24;9.23;;;5.23;;
47529;SDS011;33272;51.922;7.730;2023-06-26T08:49:53;7.50;;;4.77;;
47529;SDS011;33272;51.922;7.730;2023-06-26T08:52:33;10.90;;;5.97;;
47529;SDS011;33272;51.922;7.730;2023-06-26T08:55:06;10.00;;;4.97;;
47529;SDS011;33272;51.922;7.730;2023-06-26T08:57:37;8.40;;;5.47;;
47529;SDS011;33272;51.922;7.730;2023-06-26T09:00:05;9.53;;;5.00;;
47529;SDS011;33272;51.922;7.730;2023-06-26T09:02:35;8.17;;;5.13;;
47529;SDS011;33272;51.922;7.730;2023-06-26T09:05:02;10.50;;;4.97;;
47529;SDS011;33272;51.922;7.730;2023-06-26T09:07:31;8.83;;;4.93;;
47529;SDS011;33272;51.922;7.730;2023-06-26T09:09:58;8.50;;;4.43;;
47529;SDS011;33272;51.922;7.730;2023-06-26T09:12:26;8.63;;;4.37;;
47529;SDS011;33272;51.922;7.730;2023-06-26T09:14:54;8.77;;;4.93;;
47529;SDS011;33272;51.922;7.730;2023-06-26T09:17:24;8.30;;;4.40;;
47529;SDS011;33272;51.922;7.730;2023-06-26T09:19:51;7.30;;;4.27;;
47529;SDS011;33272;51.922;7.730;2023-06-26T09:22:19;9.57;;;4.50;;
47529;SDS011;33272;51.922;7.730;2023-06-26T09:24:48;9.80;;;4.30;;
47529;SDS011;33272;51.922;7.730;2023-06-26T09:27:15;5.37;;;3.87;;
47529;SDS011;33272;51.922;7.730;2023-06-26T09:29:44;6.93;;;4.57;;
47529;SDS011;33272;51.922;7.730;2023-06-26T09:32:13;5.00;;;4.03;;
47529;SDS011;33272;51.922;7.730;2023-06-26T09:34:41;5.80;;;3.93;;
47529;SDS011;33272;51.922;7.730;2023-06-26T09:37:11;5.33;;;4.23;;
47529;SDS011;33272;51.922;7.730;2023-06-26T09:39:39;5.50;;;3.40;;
47529;SDS011;33272;51.922;7.730;2023-06-26T09:42:07;5.23;;;3.80;;
47529;SDS011;33272;51.922;7.730;2023-06-26T09:44:34;7.60;;;3.70;;
47529;SDS011;33272;51.922;7.730;2023-06-26T09:47:01;6.63;;;3.70;;
47529;SDS011;33272;51.922;7.730;2023-06-26T09:49:29;7.93;;;4.00;;
47529;SDS011;33272;51.922;7.730;2023-06-26T09:51:57;5.40;;;3.83;;
47529;SDS011;33272;51.922;7.730;2023-06-26T09:54:27;6.77;;;4.50;;
47529;SDS011;33272;51.922;7.730;2023-06-26T09:56:55;7.80;;;3.93;;
47529;SDS011;33272;51.922;7.730;2023-06-26T09:59:23;6.00;;;3.87;;
47529;SDS011;33272;51.922;7.730;2023-06-26T10:01:58;5.60;;;4.43;;
47529;SDS011;33272;51.922;7.730;2023-06-26T10:04:26;5.60;;;3.87;;
47529;SDS011;33272;51.922;7.730;2023-06-26T10:06:54;5.27;;;3.50;;
47529;SDS011;33272;51.922;7.730;2023-06-26T10:09:24;7.13;;;3.83;;
47529;SDS011;33272;51.922;7.730;2023-06-26T10:11:51;9.10;;;4.23;;
47529;SDS011;33272;51.922;7.730;2023-06-26T10:14:25;5.17;;;3.70;;
47529;SDS011;33272;51.922;7.730;2023-06-26T10:16:56;5.70;;;3.93;;
47529;SDS011;33272;51.922;7.730;2023-06-26T10:19:25;7.20;;;3.37;;
47529;SDS011;33272;51.922;7.730;2023-06-26T10:21:54;5.97;;;3.70;;
47529;SDS011;33272;51.922;7.730;2023-06-26T10:24:23;4.23;;;2.87;;
47529;SDS011;33272;51.922;7.730;2023-06-26T10:26:54;4.40;;;3.40;;
47529;SDS011;33272;51.922;7.730;2023-06-26T10:29:29;4.70;;;3.20;;
47529;SDS011;33272;51.922;7.730;2023-06-26T10:31:58;5.63;;;3.20;;
47529;SDS011;33272;51.922;7.730;2023-06-26T10:34:28;5.37;;;3.03;;
47529;SDS011;33272;51.922;7.730;2023-06-26T10:36:59;5.17;;;3.20;;
47529;SDS011;33272;51.922;7.730;2023-06-26T10:39:26;4.20;;;2.80;;
47529;SDS011;33272;51.922;7.730;2023-06-26T10:41:54;4.40;;;3.03;;
47529;SDS011;33272;51.922;7.730;2023-06-26T10:44:21;3.40;;;2.77;;
47529;SDS011;33272;51.922;7.730;2023-06-26T10:46:50;5.67;;;2.87;;
47529;SDS011;33272;51.922;7.730;2023-06-26T10:49:18;4.83;;;3.03;;
47529;SDS011;33272;51.922;7.730;2023-06-26T10:51:46;4.47;;;3.30;;
47529;SDS011;33272;51.922;7.730;2023-06-26T10:54:15;5.97;;;3.83;;
47529;SDS011;33272;51.922;7.730;2023-06-26T10:56:43;13.50;;;7.20;;
47529;SDS011;33272;51.922;7.730;2023-06-26T10:59:15;5.60;;;4.43;;
47529;SDS011;33272;51.922;7.730;2023-06-26T11:01:45;6.40;;;4.73;;
47529;SDS011;33272;51.922;7.730;2023-06-26T11:04:22;7.77;;;5.97;;
47529;SDS011;33272;51.922;7.730;2023-06-26T11:07:16;4.23;;;3.57;;
47529;SDS011;33272;51.922;7.730;2023-06-26T11:09:55;4.47;;;3.20;;
47529;SDS011;33272;51.922;7.730;2023-06-26T11:15:09;5.93;;;3.00;;
47529;SDS011;33272;51.922;7.730;2023-06-26T11:17:38;3.27;;;2.20;;
47529;SDS011;33272;51.922;7.730;2023-06-26T11:20:08;5.90;;;2.67;;
47529;SDS011;33272;51.922;7.730;2023-06-26T11:22:37;2.83;;;2.50;;
47529;SDS011;33272;51.922;7.730;2023-06-26T11:25:06;4.13;;;2.63;;
47529;SDS011;33272;51.922;7.730;2023-06-26T11:27:37;4.90;;;2.80;;
47529;SDS011;33272;51.922;7.730;2023-06-26T11:30:05;3.23;;;2.20;;
47529;SDS011;33272;51.922;7.730;2023-06-26T11:32:36;4.67;;;2.17;;
47529;SDS011;33272;51.922;7.730;2023-06-26T11:35:04;3.07;;;2.37;;
47529;SDS011;33272;51.922;7.730;2023-06-26T11:37:33;2.30;;;2.10;;
47529;SDS011;33272;51.922;7.730;2023-06-26T11:40:15;2.73;;;2.07;;
47529;SDS011;33272;51.922;7.730;2023-06-26T11:42:43;3.53;;;2.70;;
47529;SDS011;33272;51.922;7.730;2023-06-26T11:45:11;3.90;;;2.23;;
47529;SDS011;33272;51.922;7.730;2023-06-26T11:47:38;3.80;;;2.60;;
47529;SDS011;33272;51.922;7.730;2023-06-26T11:50:16;2.83;;;2.47;;
47529;SDS011;33272;51.922;7.730;2023-06-26T11:52:44;3.90;;;2.47;;
47529;SDS011;33272;51.922;7.730;2023-06-26T11:55:18;4.30;;;2.60;;
47529;SDS011;33272;51.922;7.730;2023-06-26T11:57:47;2.67;;;2.17;;
47529;SDS011;33272;51.922;7.730;2023-06-26T12:00:16;4.50;;;2.50;;
47529;SDS011;33272;51.922;7.730;2023-06-26T12:02:44;3.30;;;2.30;;
47529;SDS011;33272;51.922;7.730;2023-06-26T12:05:13;4.40;;;2.37;;
47529;SDS011;33272;51.922;7.730;2023-06-26T12:07:41;4.07;;;2.50;;
47529;SDS011;33272;51.922;7.730;2023-06-26T12:10:12;4.10;;;2.70;;
47529;SDS011;33272;51.922;7.730;2023-06-26T12:12:41;4.17;;;2.40;;
47529;SDS011;33272;51.922;7.730;2023-06-26T12:15:10;4.47;;;2.77;;
47529;SDS011;33272;51.922;7.730;2023-06-26T12:17:40;3.30;;;2.50;;
47529;SDS011;33272;51.922;7.730;2023-06-26T12:20:16;4.73;;;3.07;;
47529;SDS011;33272;51.922;7.730;2023-06-26T12:22:46;5.17;;;2.40;;
47529;SDS011;33272;51.922;7.730;2023-06-26T12:25:14;2.90;;;2.33;;
47529;SDS011;33272;51.922;7.730;2023-06-26T12:27:47;3.93;;;2.57;;
47529;SDS011;33272;51.922;7.730;2023-06-26T12:30:15;3.87;;;2.60;;
47529;SDS011;33272;51.922;7.730;2023-06-26T12:32:43;4.07;;;2.37;;
47529;SDS011;33272;51.922;7.730;2023-06-26T12:35:11;2.40;;;2.20;;
47529;SDS011;33272;51.922;7.730;2023-06-26T12:37:38;3.53;;;2.40;;
47529;SDS011;33272;51.922;7.730;2023-06-26T12:40:17;2.80;;;2.17;;
47529;SDS011;33272;51.922;7.730;2023-06-26T12:42:47;3.07;;;2.10;;
47529;SDS011;33272;51.922;7.730;2023-06-26T12:45:14;3.07;;;1.87;;
47529;SDS011;33272;51.922;7.730;2023-06-26T12:47:42;3.63;;;1.87;;
47529;SDS011;33272;51.922;7.730;2023-06-26T12:50:09;4.57;;;1.80;;
47529;SDS011;33272;51.922;7.730;2023-06-26T12:52:36;3.17;;;2.00;;
47529;SDS011;33272;51.922;7.730;2023-06-26T12:55:03;4.27;;;1.93;;
47529;SDS011;33272;51.922;7.730;2023-06-26T12:57:33;3.20;;;2.03;;
47529;SDS011;33272;51.922;7.730;2023-06-26T13:00:00;2.67;;;1.93;;
47529;SDS011;33272;51.922;7.730;2023-06-26T13:02:28;3.33;;;1.70;;
47529;SDS011;33272;51.922;7.730;2023-06-26T13:04:55;5.23;;;1.80;;
47529;SDS011;33272;51.922;7.730;2023-06-26T13:07:22;2.80;;;1.50;;
47529;SDS011;33272;51.922;7.730;2023-06-26T13:09:50;2.20;;;1.40;;
47529;SDS011;33272;51.922;7.730;2023-06-26T13:12:17;2.77;;;1.70;;
47529;SDS011;33272;51.922;7.730;2023-06-26T13:14:45;2.53;;;1.70;;
47529;SDS011;33272;51.922;7.730;2023-06-26T13:17:13;3.50;;;1.70;;
47529;SDS011;33272;51.922;7.730;2023-06-26T13:19:40;3.73;;;1.80;;
47529;SDS011;33272;51.922;7.730;2023-06-26T13:22:08;3.90;;;1.50;;
47529;SDS011;33272;51.922;7.730;2023-06-26T13:24:35;3.27;;;1.50;;
47529;SDS011;33272;51.922;7.730;2023-06-26T13:27:02;4.50;;;1.60;;
47529;SDS011;33272;51.922;7.730;2023-06-26T13:29:31;4.33;;;1.50;;
47529;SDS011;33272;51.922;7.730;2023-06-26T13:31:59;2.53;;;1.47;;
47529;SDS011;33272;51.922;7.730;2023-06-26T13:34:27;7.20;;;1.90;;
47529;SDS011;33272;51.922;7.730;2023-06-26T13:36:54;2.60;;;1.30;;
47529;SDS011;33272;51.922;7.730;2023-06-26T13:39:21;3.63;;;1.50;;
47529;SDS011;33272;51.922;7.730;2023-06-26T13:41:48;3.27;;;1.70;;
47529;SDS011;33272;51.922;7.730;2023-06-26T13:44:15;2.80;;;1.63;;
47529;SDS011;33272;51.922;7.730;2023-06-26T13:46:42;2.13;;;1.70;;
47529;SDS011;33272;51.922;7.730;2023-06-26T13:49:10;4.00;;;2.03;;
47529;SDS011;33272;51.922;7.730;2023-06-26T13:51:37;5.13;;;1.93;;
47529;SDS011;33272;51.922;7.730;2023-06-26T13:54:10;2.93;;;1.80;;
47529;SDS011;33272;51.922;7.730;2023-06-26T13:56:37;2.67;;;1.60;;
47529;SDS011;33272;51.922;7.730;2023-06-26T13:59:04;3.37;;;1.80;;
47529;SDS011;33272;51.922;7.730;2023-06-26T14:01:31;2.83;;;1.77;;
47529;SDS011;33272;51.922;7.730;2023-06-26T14:03:58;3.07;;;1.47;;
47529;SDS011;33272;51.922;7.730;2023-06-26T14:06:26;3.60;;;1.77;;
47529;SDS011;33272;51.922;7.730;2023-06-26T14:08:54;2.53;;;1.57;;
47529;SDS011;33272;51.922;7.730;2023-06-26T14:11:21;3.23;;;1.30;;
47529;SDS011;33272;51.922;7.730;2023-06-26T14:13:50;1.73;;;1.33;;
47529;SDS011;33272;51.922;7.730;2023-06-26T14:16:17;2.87;;;1.27;;
47529;SDS011;33272;51.922;7.730;2023-06-26T14:18:45;1.50;;;1.23;;
47529;SDS011;33272;51.922;7.730;2023-06-26T14:21:13;2.83;;;1.53;;
47529;SDS011;33272;51.922;7.730;2023-06-26T14:23:41;3.37;;;1.63;;
47529;SDS011;33272;51.922;7.730;2023-06-26T14:26:08;1.93;;;1.40;;
47529;SDS011;33272;51.922;7.730;2023-06-26T14:28:35;2.50;;;1.30;;
47529;SDS011;33272;51.922;7.730;2023-06-26T14:31:02;2.20;;;1.67;;
47529;SDS011;33272;51.922;7.730;2023-06-26T14:33:29;1.70;;;1.20;;
47529;SDS011;33272;51.922;7.730;2023-06-26T14:35:56;3.67;;;1.40;;
47529;SDS011;33272;51.922;7.730;2023-06-26T14:38:23;3.47;;;1.47;;
47529;SDS011;33272;51.922;7.730;2023-06-26T14:40:51;2.30;;;1.50;;
47529;SDS011;33272;51.922;7.730;2023-06-26T14:43:18;2.30;;;1.20;;
47529;SDS011;33272;51.922;7.730;2023-06-26T14:45:45;3.60;;;1.53;;
47529;SDS011;33272;51.922;7.730;2023-06-26T14:48:12;1.33;;;1.10;;
47529;SDS011;33272;51.922;7.730;2023-06-26T14:50:39;2.87;;;1.47;;
47529;SDS011;33272;51.922;7.730;2023-06-26T14:53:06;2.27;;;1.30;;
47529;SDS011;33272;51.922;7.730;2023-06-26T14:55:33;3.50;;;1.30;;